createdAt,value
2018-12-06T00:00:34.004Z,10.10
2018-12-06T00:03:02.424Z,10.30
2018-12-06T00:05:30.986Z,10.30
2018-12-06T00:08:12.804Z,10.70
2018-12-06T00:10:41.251Z,10.30
2018-12-06T00:13:09.883Z,10.20
2018-12-06T00:15:38.349Z,10.20
2018-12-06T00:18:06.765Z,10.20
2018-12-06T00:20:35.287Z,10.20
2018-12-06T00:23:03.733Z,10.30
2018-12-06T00:25:32.025Z,10.30
2018-12-06T00:28:00.601Z,10.40
2018-12-06T00:30:34.987Z,10.20
2018-12-06T00:33:04.010Z,10.20
2018-12-06T00:35:33.501Z,10.30
2018-12-06T00:38:02.002Z,10.30
2018-12-06T00:40:30.638Z,10.30
2018-12-06T00:42:58.967Z,10.30
2018-12-06T00:45:27.496Z,10.30
2018-12-06T00:47:56.086Z,10.30
2018-12-06T00:50:26.449Z,10.30
2018-12-06T00:52:54.950Z,10.30
2018-12-06T00:55:23.353Z,10.30
2018-12-06T00:57:51.997Z,10.60
2018-12-06T01:00:20.595Z,10.60
2018-12-06T01:02:49.246Z,10.30
2018-12-06T01:05:17.701Z,10.30
2018-12-06T01:07:50.108Z,10.30
2018-12-06T01:10:18.617Z,10.40
2018-12-06T01:12:49.174Z,10.50
2018-12-06T01:15:16.802Z,10.30
2018-12-06T01:17:44.116Z,10.70
2018-12-06T01:20:15.484Z,10.30
2018-12-06T01:22:43.962Z,10.70
2018-12-06T01:25:13.429Z,10.30
2018-12-06T01:27:40.715Z,10.40
2018-12-06T01:30:09.357Z,10.30
2018-12-06T01:32:38.873Z,10.40
2018-12-06T01:35:07.560Z,10.30
2018-12-06T01:37:35.974Z,10.40
2018-12-06T01:40:04.637Z,10.60
2018-12-06T01:42:33.042Z,10.40
2018-12-06T01:45:02.663Z,10.40
2018-12-06T01:47:29.946Z,10.70
2018-12-06T01:49:58.231Z,10.40
2018-12-06T01:52:26.746Z,10.40
2018-12-06T01:54:55.304Z,10.40
2018-12-06T01:57:24.134Z,10.40
2018-12-06T01:59:52.562Z,10.40
2018-12-06T02:02:19.988Z,10.50
2018-12-06T02:04:48.281Z,10.40
2018-12-06T02:07:19.221Z,10.40
2018-12-06T02:09:47.540Z,10.40
2018-12-06T02:12:16.223Z,10.40
2018-12-06T02:14:44.784Z,10.30
2018-12-06T02:17:13.528Z,10.30
2018-12-06T02:19:41.943Z,10.40
2018-12-06T02:22:10.369Z,10.40
2018-12-06T02:24:38.795Z,10.40
2018-12-06T02:27:07.181Z,10.40
2018-12-06T02:29:42.860Z,10.50
2018-12-06T02:32:11.364Z,10.50
2018-12-06T02:34:39.759Z,10.50
2018-12-06T02:37:08.243Z,10.50
2018-12-06T02:39:36.694Z,10.50
2018-12-06T02:42:07.482Z,10.50
2018-12-06T02:44:36.093Z,10.50
2018-12-06T02:47:04.581Z,10.40
2018-12-06T02:49:33.075Z,10.50
2018-12-06T02:52:01.454Z,10.50
2018-12-06T02:54:29.937Z,10.80
2018-12-06T02:56:58.328Z,10.50
2018-12-06T02:59:26.717Z,10.50
2018-12-06T03:01:55.394Z,10.30
2018-12-06T03:04:27.930Z,11.00
2018-12-06T03:06:55.598Z,10.60
2018-12-06T03:09:22.873Z,10.60
2018-12-06T03:11:51.275Z,10.60
2018-12-06T03:14:19.726Z,10.60
2018-12-06T03:16:47.951Z,10.60
2018-12-06T03:19:20.454Z,10.60
2018-12-06T03:21:47.797Z,10.60
2018-12-06T03:24:16.361Z,10.50
2018-12-06T03:26:44.705Z,10.50
2018-12-06T03:29:13.075Z,10.60
2018-12-06T03:31:41.728Z,10.60
2018-12-06T03:34:12.899Z,10.50
2018-12-06T03:36:41.415Z,10.50
2018-12-06T03:39:09.887Z,10.50
2018-12-06T03:41:37.211Z,10.50
2018-12-06T03:44:05.529Z,10.60
2018-12-06T03:46:33.868Z,10.20
2018-12-06T03:49:02.514Z,10.60
2018-12-06T03:51:33.277Z,10.70
2018-12-06T03:54:01.737Z,10.70
2018-12-06T03:56:30.351Z,10.70
2018-12-06T03:58:58.582Z,10.50
2018-12-06T04:01:26.982Z,10.70
2018-12-06T04:03:55.642Z,10.80
2018-12-06T04:06:23.974Z,10.60
2018-12-06T04:08:52.485Z,10.60
2018-12-06T04:11:21.735Z,10.70
2018-12-06T04:13:49.089Z,10.60
2018-12-06T04:16:17.493Z,10.90
2018-12-06T04:18:45.797Z,10.60
2018-12-06T04:21:14.353Z,11.00
2018-12-06T04:23:42.822Z,11.00
2018-12-06T04:26:11.322Z,10.60
2018-12-06T04:28:39.738Z,10.90
2018-12-06T04:31:08.135Z,10.90
2018-12-06T04:33:41.476Z,10.60
2018-12-06T04:36:10.007Z,10.50
2018-12-06T04:38:38.593Z,10.50
2018-12-06T04:41:06.991Z,10.60
2018-12-06T04:43:35.613Z,10.60
2018-12-06T04:46:04.250Z,10.50
2018-12-06T04:48:32.687Z,10.40
2018-12-06T04:51:01.108Z,10.50
2018-12-06T04:53:29.536Z,10.50
2018-12-06T04:55:57.839Z,10.70
2018-12-06T04:58:26.297Z,10.50
2018-12-06T05:00:57.679Z,10.50
2018-12-06T05:03:26.523Z,10.50
2018-12-06T05:05:55.131Z,10.60
2018-12-06T05:10:57.874Z,10.70
2018-12-06T05:13:26.360Z,10.60
2018-12-06T05:15:54.750Z,10.60
2018-12-06T05:18:23.285Z,10.60
2018-12-06T05:20:51.570Z,10.90
2018-12-06T05:23:19.989Z,10.50
2018-12-06T05:25:48.488Z,10.80
2018-12-06T05:28:16.908Z,10.70
2018-12-06T05:30:45.327Z,10.40
2018-12-06T05:33:13.742Z,10.60
2018-12-06T05:35:42.254Z,10.60
2018-12-06T05:38:13.941Z,10.50
2018-12-06T05:40:42.369Z,10.50
2018-12-06T05:43:10.786Z,10.50
2018-12-06T05:45:39.268Z,10.60
2018-12-06T05:48:07.705Z,11.00
2018-12-06T05:50:36.162Z,10.60
2018-12-06T05:53:05.102Z,10.60
2018-12-06T05:55:33.533Z,10.60
2018-12-06T05:58:02.066Z,10.60
2018-12-06T06:00:30.699Z,10.60
2018-12-06T06:02:59.200Z,10.70
2018-12-06T06:05:28.651Z,10.70
2018-12-06T06:07:56.146Z,10.70
2018-12-06T06:10:27.897Z,11.00
2018-12-06T06:12:55.233Z,10.60
2018-12-06T06:15:29.397Z,10.60
2018-12-06T06:17:56.735Z,10.70
2018-12-06T06:20:25.639Z,11.10
2018-12-06T06:22:53.553Z,11.10
2018-12-06T06:25:20.849Z,10.70
2018-12-06T06:27:48.271Z,10.70
2018-12-06T06:30:15.859Z,10.70
2018-12-06T06:32:43.882Z,10.70
2018-12-06T06:35:12.950Z,10.70
2018-12-06T06:37:40.242Z,10.70
2018-12-06T06:40:08.809Z,10.70
2018-12-06T06:42:37.507Z,10.60
2018-12-06T06:45:06.177Z,10.70
2018-12-06T06:47:34.698Z,10.70
2018-12-06T06:50:03.893Z,10.90
2018-12-06T06:52:34.710Z,10.70
2018-12-06T06:55:03.567Z,10.70
2018-12-06T06:57:31.985Z,10.60
2018-12-06T07:00:00.372Z,10.60
2018-12-06T07:02:28.794Z,10.60
2018-12-06T07:04:57.242Z,10.60
2018-12-06T07:07:25.787Z,10.60
2018-12-06T07:09:54.293Z,10.30
2018-12-06T07:12:23.043Z,10.70
2018-12-06T07:14:51.529Z,10.70
2018-12-06T07:17:18.818Z,10.60
2018-12-06T07:19:47.334Z,10.80
2018-12-06T07:22:16.177Z,11.00
2018-12-06T07:24:44.730Z,10.70
2018-12-06T07:27:13.137Z,10.60
2018-12-06T07:29:43.657Z,10.70
2018-12-06T07:32:12.103Z,10.80
2018-12-06T07:34:40.576Z,11.20
2018-12-06T07:37:08.977Z,10.90
2018-12-06T07:39:37.374Z,10.90
2018-12-06T07:42:06.104Z,10.90
2018-12-06T07:44:34.679Z,10.80
2018-12-06T07:47:03.428Z,10.90
2018-12-06T07:49:32.201Z,10.90
2018-12-06T07:52:00.505Z,10.90
2018-12-06T07:54:29.359Z,11.00
2018-12-06T07:56:57.834Z,11.00
2018-12-06T07:59:26.266Z,11.10
2018-12-06T08:01:58.502Z,11.20
2018-12-06T08:04:26.886Z,11.00
2018-12-06T08:06:55.672Z,11.10
2018-12-06T08:09:24.158Z,11.10
2018-12-06T08:11:52.483Z,11.20
2018-12-06T08:14:20.976Z,11.20
2018-12-06T08:16:49.490Z,11.20
2018-12-06T08:19:18.150Z,11.30
2018-12-06T08:21:46.630Z,11.30
2018-12-06T08:24:15.723Z,11.30
2018-12-06T08:26:44.206Z,11.30
2018-12-06T08:29:12.846Z,11.40
2018-12-06T08:31:41.494Z,11.40
2018-12-06T08:34:10.029Z,11.70
2018-12-06T08:36:38.565Z,11.50
2018-12-06T08:39:07.085Z,11.60
2018-12-06T08:41:35.629Z,11.40
2018-12-06T08:44:06.773Z,11.50
2018-12-06T08:46:35.260Z,11.50
2018-12-06T08:49:03.823Z,11.60
2018-12-06T08:51:32.167Z,11.60
2018-12-06T08:54:00.619Z,11.70
2018-12-06T08:56:29.407Z,11.60
2018-12-06T08:58:57.950Z,12.00
2018-12-06T09:01:26.242Z,11.60
2018-12-06T09:03:54.659Z,11.70
2018-12-06T09:06:23.114Z,11.90
2018-12-06T09:08:51.653Z,11.70
2018-12-06T09:11:20.557Z,12.10
2018-12-06T09:13:47.841Z,11.10
2018-12-06T09:16:16.441Z,11.70
2018-12-06T09:18:50.950Z,11.90
2018-12-06T09:21:18.358Z,11.70
2018-12-06T09:23:46.814Z,11.80
2018-12-06T09:26:15.801Z,11.90
2018-12-06T09:28:43.072Z,11.90
2018-12-06T09:31:15.439Z,11.90
2018-12-06T09:33:55.376Z,11.90
2018-12-06T09:36:23.867Z,12.00
2018-12-06T09:38:52.429Z,12.00
2018-12-06T09:41:20.853Z,12.30
2018-12-06T09:43:49.545Z,12.30
2018-12-06T09:46:18.185Z,12.20
2018-12-06T09:48:46.500Z,12.20
2018-12-06T09:51:18.019Z,12.30
2018-12-06T09:53:46.421Z,12.40
2018-12-06T09:56:14.941Z,12.80
2018-12-06T09:58:43.349Z,12.50
2018-12-06T10:01:12.013Z,12.50
2018-12-06T10:03:47.026Z,12.60
2018-12-06T10:06:14.345Z,12.90
2018-12-06T10:08:42.757Z,12.60
2018-12-06T10:11:11.142Z,12.70
2018-12-06T10:13:39.525Z,13.10
2018-12-06T10:16:07.835Z,12.60
2018-12-06T10:18:39.453Z,12.60
2018-12-06T10:21:06.875Z,12.40
2018-12-06T10:23:35.189Z,12.80
2018-12-06T10:26:03.729Z,12.70
2018-12-06T10:28:31.138Z,12.60
2018-12-06T10:31:04.811Z,12.20
2018-12-06T10:33:32.089Z,12.40
2018-12-06T10:36:00.714Z,12.00
2018-12-06T10:38:30.623Z,12.40
2018-12-06T10:40:58.026Z,12.40
2018-12-06T10:43:28.250Z,12.40
2018-12-06T10:45:56.809Z,12.50
2018-12-06T10:48:25.222Z,12.60
2018-12-06T10:51:07.670Z,12.60
2018-12-06T10:53:36.289Z,12.50
2018-12-06T10:56:04.722Z,12.60
2018-12-06T10:58:33.154Z,12.60
2018-12-06T11:01:09.184Z,12.70
2018-12-06T11:03:47.075Z,12.90
2018-12-06T11:06:15.578Z,12.60
2018-12-06T11:08:44.158Z,12.80
2018-12-06T11:11:14.278Z,12.70
2018-12-06T11:13:44.331Z,12.60
2018-12-06T11:16:12.818Z,13.20
2018-12-06T11:18:41.226Z,12.60
2018-12-06T11:21:09.650Z,12.60
2018-12-06T11:23:43.041Z,12.70
2018-12-06T11:26:11.459Z,12.30
2018-12-06T11:28:39.962Z,13.10
2018-12-06T11:31:08.513Z,12.80
2018-12-06T11:33:37.021Z,12.70
2018-12-06T11:36:12.242Z,12.80
2018-12-06T11:38:40.779Z,12.80
2018-12-06T11:41:09.088Z,12.90
2018-12-06T11:43:37.541Z,12.90
2018-12-06T11:46:05.980Z,12.50
2018-12-06T11:48:39.986Z,13.10
2018-12-06T11:51:08.386Z,12.90
2018-12-06T11:53:36.798Z,13.00
2018-12-06T11:56:05.182Z,13.10
2018-12-06T11:58:35.353Z,12.90
2018-12-06T12:01:05.064Z,13.10
2018-12-06T12:03:33.588Z,12.90
2018-12-06T12:06:02.141Z,12.90
2018-12-06T12:08:30.462Z,13.00
2018-12-06T12:11:03.706Z,13.20
2018-12-06T12:13:32.375Z,12.90
2018-12-06T12:16:00.764Z,12.90
2018-12-06T12:18:29.178Z,13.50
2018-12-06T12:20:57.631Z,13.00
2018-12-06T12:23:27.822Z,13.10
2018-12-06T12:25:56.348Z,12.80
2018-12-06T12:28:24.761Z,12.90
2018-12-06T12:30:53.270Z,12.80
2018-12-06T12:33:21.577Z,12.90
2018-12-06T12:35:52.452Z,13.20
2018-12-06T12:38:20.880Z,12.90
2018-12-06T12:40:49.323Z,12.50
2018-12-06T12:43:17.689Z,12.80
2018-12-06T12:45:46.138Z,12.80
2018-12-06T12:48:19.758Z,12.90
2018-12-06T12:50:48.203Z,12.80
2018-12-06T12:53:16.699Z,12.80
2018-12-06T12:55:45.197Z,13.10
2018-12-06T12:58:13.618Z,12.90
2018-12-06T13:00:43.546Z,12.80
2018-12-06T13:03:11.994Z,12.80
2018-12-06T13:05:40.641Z,12.80
2018-12-06T13:08:09.173Z,12.80
2018-12-06T13:10:37.670Z,12.70
2018-12-06T13:13:10.817Z,12.70
2018-12-06T13:15:39.209Z,12.80
2018-12-06T13:18:07.609Z,12.70
2018-12-06T13:20:36.057Z,12.80
2018-12-06T13:23:05.206Z,13.00
2018-12-06T13:28:07.188Z,12.80
2018-12-06T13:30:35.737Z,12.90
2018-12-06T13:33:04.263Z,12.90
2018-12-06T13:35:32.687Z,12.90
2018-12-06T13:38:06.321Z,12.80
2018-12-06T13:40:34.633Z,12.90
2018-12-06T13:43:03.265Z,12.90
2018-12-06T13:45:31.881Z,13.10
2018-12-06T13:48:00.289Z,12.90
2018-12-06T13:50:32.662Z,12.60
2018-12-06T13:52:59.978Z,12.90
2018-12-06T13:55:27.281Z,13.20
2018-12-06T13:57:56.042Z,13.00
2018-12-06T14:00:24.821Z,13.00
2018-12-06T14:02:57.035Z,13.30
2018-12-06T14:05:25.506Z,13.00
2018-12-06T14:07:53.888Z,13.00
2018-12-06T14:10:22.506Z,13.00
2018-12-06T14:12:50.873Z,13.00
2018-12-06T14:15:24.566Z,13.20
2018-12-06T14:17:53.133Z,12.80
2018-12-06T14:20:21.555Z,12.80
2018-12-06T14:22:50.166Z,12.90
2018-12-06T14:25:18.574Z,13.00
2018-12-06T14:27:50.652Z,13.30
2018-12-06T14:30:19.237Z,13.00
2018-12-06T14:32:47.724Z,13.00
2018-12-06T14:35:16.668Z,12.90
2018-12-06T14:37:43.918Z,12.90
2018-12-06T14:40:17.681Z,13.00
2018-12-06T14:42:45.031Z,13.00
2018-12-06T14:45:13.361Z,13.30
2018-12-06T14:47:41.936Z,13.20
2018-12-06T14:50:09.433Z,13.10
2018-12-06T14:52:39.872Z,13.00
2018-12-06T14:55:08.818Z,13.10
2018-12-06T14:57:37.352Z,13.30
2018-12-06T15:00:08.169Z,13.10
2018-12-06T15:02:38.891Z,13.00
2018-12-06T15:05:09.470Z,13.40
2018-12-06T15:07:36.857Z,13.20
2018-12-06T15:10:05.388Z,13.20
2018-12-06T15:12:33.696Z,13.20
2018-12-06T15:15:08.045Z,12.70
2018-12-06T15:17:35.329Z,13.00
2018-12-06T15:20:03.925Z,13.20
2018-12-06T15:22:32.534Z,13.20
2018-12-06T15:25:01.143Z,13.10
2018-12-06T15:27:32.777Z,13.10
2018-12-06T15:30:01.170Z,13.00
2018-12-06T15:32:29.672Z,13.10
2018-12-06T15:34:58.077Z,13.50
2018-12-06T15:37:26.464Z,13.10
2018-12-06T15:40:07.147Z,13.10
2018-12-06T15:42:49.132Z,13.10
2018-12-06T15:45:16.733Z,13.30
2018-12-06T15:47:44.034Z,13.10
2018-12-06T15:50:11.467Z,13.10
2018-12-06T15:52:39.844Z,13.20
2018-12-06T15:55:08.438Z,13.20
2018-12-06T15:57:38.005Z,13.60
2018-12-06T16:00:10.141Z,13.20
2018-12-06T16:02:38.465Z,13.20
2018-12-06T16:05:07.164Z,13.20
2018-12-06T16:07:35.644Z,13.20
2018-12-06T16:10:08.153Z,13.10
2018-12-06T16:12:36.548Z,13.10
2018-12-06T16:15:06.433Z,13.10
2018-12-06T16:17:34.770Z,13.10
2018-12-06T16:20:09.126Z,13.10
2018-12-06T16:22:37.537Z,13.00
2018-12-06T16:25:06.204Z,13.10
2018-12-06T16:27:34.595Z,13.00
2018-12-06T16:32:36.413Z,13.00
2018-12-06T16:35:05.348Z,12.60
2018-12-06T16:37:33.842Z,13.00
2018-12-06T16:40:03.032Z,13.10
2018-12-06T16:42:36.431Z,13.10
2018-12-06T16:45:05.622Z,13.30
2018-12-06T16:47:34.162Z,13.20
2018-12-06T16:50:02.863Z,13.40
2018-12-06T16:52:31.252Z,13.40
2018-12-06T16:55:04.537Z,13.20
2018-12-06T16:57:32.929Z,13.20
2018-12-06T17:00:01.333Z,13.20
2018-12-06T17:02:29.734Z,13.20
2018-12-06T17:04:58.143Z,13.20
2018-12-06T17:07:26.507Z,13.20
2018-12-06T17:09:54.855Z,13.20
2018-12-06T17:12:23.366Z,13.20
2018-12-06T17:14:51.854Z,13.70
2018-12-06T17:17:20.417Z,13.20
2018-12-06T17:19:48.853Z,13.20
2018-12-06T17:22:17.310Z,13.10
2018-12-06T17:24:45.629Z,13.50
2018-12-06T17:27:14.084Z,13.00
2018-12-06T17:29:42.685Z,13.10
2018-12-06T17:32:11.266Z,13.10
2018-12-06T17:34:39.616Z,13.30
2018-12-06T17:37:08.072Z,13.00
2018-12-06T17:39:36.416Z,13.00
2018-12-06T17:42:04.980Z,12.80
2018-12-06T17:44:33.610Z,13.00
2018-12-06T17:47:02.060Z,13.10
2018-12-06T17:49:30.486Z,13.40
2018-12-06T17:51:59.127Z,13.10
2018-12-06T17:54:27.631Z,13.50
2018-12-06T17:56:56.153Z,13.10
2018-12-06T17:59:24.582Z,13.20
2018-12-06T18:01:53.229Z,13.10
2018-12-06T18:04:21.751Z,13.50
2018-12-06T18:06:50.445Z,13.20
2018-12-06T18:09:19.834Z,13.10
2018-12-06T18:11:47.149Z,13.10
2018-12-06T18:14:15.781Z,13.10
2018-12-06T18:16:43.218Z,13.10
2018-12-06T18:19:11.798Z,13.30
2018-12-06T18:21:40.239Z,13.20
2018-12-06T18:24:08.663Z,13.20
2018-12-06T18:26:37.229Z,13.20
2018-12-06T18:29:05.647Z,13.20
2018-12-06T18:31:34.141Z,13.20
2018-12-06T18:34:02.802Z,13.20
2018-12-06T18:36:31.234Z,13.30
2018-12-06T18:38:59.697Z,13.30
2018-12-06T18:41:28.127Z,13.20
2018-12-06T18:43:56.936Z,13.30
2018-12-06T18:46:25.443Z,13.50
2018-12-06T18:48:53.865Z,13.50
2018-12-06T18:51:22.278Z,13.40
2018-12-06T18:53:51.090Z,13.30
2018-12-06T18:56:19.878Z,13.30
2018-12-06T18:58:48.441Z,13.20
2018-12-06T19:01:17.022Z,13.10
2018-12-06T19:03:45.506Z,13.30
2018-12-06T19:06:14.086Z,13.30
2018-12-06T19:08:42.457Z,13.40
2018-12-06T19:11:10.952Z,13.20
2018-12-06T19:13:39.556Z,13.50
2018-12-06T19:16:06.884Z,13.30
2018-12-06T19:18:35.405Z,13.20
2018-12-06T19:21:10.435Z,13.50
2018-12-06T19:23:37.825Z,13.30
2018-12-06T19:26:05.254Z,13.30
2018-12-06T19:28:33.557Z,13.30
2018-12-06T19:31:02.097Z,13.30
2018-12-06T19:33:30.596Z,13.30
2018-12-06T19:35:59.088Z,13.30
2018-12-06T19:38:27.498Z,13.30
2018-12-06T19:43:36.073Z,13.20
2018-12-06T19:46:03.728Z,13.20
2018-12-06T19:48:32.525Z,13.50
2018-12-06T19:51:00.005Z,13.20
2018-12-06T19:53:27.560Z,13.30
2018-12-06T19:55:55.067Z,13.20
2018-12-06T19:58:22.685Z,12.80
2018-12-06T20:00:50.629Z,12.80
2018-12-06T20:03:18.286Z,13.00
2018-12-06T20:05:51.500Z,12.90
2018-12-06T20:08:19.167Z,13.10
2018-12-06T20:10:46.637Z,13.10
2018-12-06T20:13:16.117Z,13.20
2018-12-06T20:15:43.527Z,13.20
2018-12-06T20:18:11.099Z,12.90
2018-12-06T20:20:38.931Z,13.40
2018-12-06T20:23:06.573Z,13.10
2018-12-06T20:25:34.222Z,13.00
2018-12-06T20:28:03.858Z,13.00
2018-12-06T20:30:31.389Z,12.60
2018-12-06T20:32:59.014Z,13.20
2018-12-06T20:35:27.478Z,13.30
2018-12-06T20:37:55.572Z,12.80
2018-12-06T20:40:24.050Z,13.10
2018-12-06T20:42:52.506Z,13.20
2018-12-06T20:45:22.182Z,13.60
2018-12-06T20:47:51.452Z,13.20
2018-12-06T20:50:20.191Z,13.10
2018-12-06T20:52:48.761Z,13.20
2018-12-06T20:55:17.520Z,12.90
2018-12-06T20:57:46.147Z,13.20
2018-12-06T21:00:14.946Z,13.00
2018-12-06T21:02:43.649Z,13.40
2018-12-06T21:05:12.222Z,13.50
2018-12-06T21:07:40.865Z,13.30
2018-12-06T21:10:09.561Z,13.20
2018-12-06T21:12:38.181Z,13.10
2018-12-06T21:15:07.346Z,13.10
2018-12-06T21:17:35.941Z,13.20
2018-12-06T21:20:05.814Z,13.40
2018-12-06T21:22:33.248Z,13.10
2018-12-06T21:25:01.978Z,13.30
2018-12-06T21:27:30.654Z,13.60
2018-12-06T21:29:59.217Z,13.10
2018-12-06T21:32:27.689Z,13.30
2018-12-06T21:34:56.073Z,13.20
2018-12-06T21:37:24.593Z,13.40
2018-12-06T21:39:53.393Z,13.30
2018-12-06T21:42:20.898Z,13.30
2018-12-06T21:44:49.740Z,13.40
2018-12-06T21:47:23.848Z,13.80
2018-12-06T21:49:53.205Z,13.70
2018-12-06T21:52:20.738Z,13.50
2018-12-06T21:54:49.718Z,13.60
2018-12-06T21:57:18.500Z,13.50
2018-12-06T21:59:46.005Z,13.50
2018-12-06T22:02:21.806Z,13.60
2018-12-06T22:04:50.626Z,13.40
2018-12-06T22:07:22.361Z,13.40
2018-12-06T22:09:50.835Z,13.20
2018-12-06T22:12:19.455Z,13.50
2018-12-06T22:14:48.147Z,13.50
2018-12-06T22:17:16.688Z,13.50
2018-12-06T22:19:45.253Z,13.30
2018-12-06T22:22:13.673Z,13.10
2018-12-06T22:24:42.118Z,13.40
2018-12-06T22:27:10.887Z,13.50
2018-12-06T22:29:39.377Z,13.40
2018-12-06T22:32:09.535Z,13.10
2018-12-06T22:34:37.132Z,13.50
2018-12-06T22:37:05.814Z,13.60
2018-12-06T22:39:34.426Z,13.50
2018-12-06T22:42:02.959Z,13.50
2018-12-06T22:44:31.626Z,13.20
2018-12-06T22:46:59.263Z,13.50
2018-12-06T22:49:27.826Z,13.80
2018-12-06T22:51:56.464Z,13.50
2018-12-06T22:54:25.117Z,13.50
2018-12-06T22:56:53.593Z,13.40
2018-12-06T22:59:20.925Z,13.90
2018-12-06T23:01:49.980Z,13.40
2018-12-06T23:04:18.709Z,13.40
2018-12-06T23:06:47.962Z,13.40
2018-12-06T23:09:16.689Z,13.30
2018-12-06T23:11:44.502Z,13.30
2018-12-06T23:14:12.907Z,13.60
2018-12-06T23:16:41.526Z,13.40
2018-12-06T23:19:09.912Z,13.70
2018-12-06T23:21:38.257Z,13.50
2018-12-06T23:24:06.772Z,13.30
2018-12-06T23:26:35.277Z,13.40
2018-12-06T23:29:03.777Z,13.30
2018-12-06T23:31:32.154Z,13.90
2018-12-06T23:34:00.546Z,13.30
2018-12-06T23:36:28.904Z,13.20
2018-12-06T23:38:57.292Z,13.10
2018-12-06T23:41:25.905Z,13.00
2018-12-06T23:43:54.167Z,13.00
2018-12-06T23:46:22.557Z,13.10
2018-12-06T23:48:51.094Z,13.00
2018-12-06T23:51:33.027Z,13.00
2018-12-06T23:54:01.391Z,13.10
2018-12-06T23:56:29.994Z,13.50
2018-12-06T23:58:58.726Z,12.90
